createdAt,value
2023-04-15T00:01:01.280Z,12.95
2023-04-15T00:03:28.796Z,10.13
2023-04-15T00:05:56.309Z,9.32
2023-04-15T00:08:23.693Z,9.32
2023-04-15T00:10:50.936Z,12.30
2023-04-15T00:13:17.753Z,9.85
2023-04-15T00:15:44.769Z,9.82
2023-04-15T00:18:11.602Z,10.82
2023-04-15T00:20:38.466Z,14.65
2023-04-15T00:23:05.649Z,11.18
2023-04-15T00:25:33.020Z,9.75
2023-04-15T00:28:00.245Z,9.68
2023-04-15T00:30:27.122Z,14.70
2023-04-15T00:32:53.973Z,11.07
2023-04-15T00:35:21.699Z,8.55
2023-04-15T00:37:48.485Z,12.43
2023-04-15T00:40:18.971Z,8.25
2023-04-15T00:42:45.890Z,9.10
2023-04-15T00:45:13.121Z,12.60
2023-04-15T00:47:42.334Z,8.15
2023-04-15T00:50:10.267Z,12.30
2023-04-15T00:52:37.736Z,7.70
2023-04-15T00:55:05.690Z,11.73
2023-04-15T00:57:33.248Z,9.27
2023-04-15T01:00:01.132Z,8.93
2023-04-15T01:02:28.201Z,13.40
2023-04-15T01:04:56.795Z,14.52
2023-04-15T01:07:23.664Z,11.80
2023-04-15T01:09:50.661Z,10.73
2023-04-15T01:12:17.927Z,9.95
2023-04-15T01:14:44.832Z,12.35
2023-04-15T01:17:12.505Z,12.65
2023-04-15T01:19:39.815Z,13.85
2023-04-15T01:22:06.691Z,9.63
2023-04-15T01:24:34.264Z,14.18
2023-04-15T01:27:01.238Z,13.85
2023-04-15T01:29:28.664Z,11.02
2023-04-15T01:31:56.922Z,11.85
2023-04-15T01:34:23.954Z,10.68
2023-04-15T01:36:51.232Z,8.90
2023-04-15T01:39:18.147Z,11.10
2023-04-15T01:41:45.039Z,12.10
2023-04-15T01:44:11.876Z,11.80
2023-04-15T01:46:38.776Z,13.20
2023-04-15T01:49:06.237Z,10.95
2023-04-15T01:51:33.048Z,11.63
2023-04-15T01:53:59.880Z,11.75
2023-04-15T01:56:26.899Z,13.70
2023-04-15T01:58:53.796Z,10.32
2023-04-15T02:01:20.960Z,11.82
2023-04-15T02:03:48.286Z,12.68
2023-04-15T02:06:15.317Z,12.27
2023-04-15T02:08:42.194Z,15.30
2023-04-15T02:11:09.319Z,10.90
2023-04-15T02:13:36.961Z,15.50
2023-04-15T02:16:04.084Z,14.40
2023-04-15T02:18:31.062Z,10.32
2023-04-15T02:20:58.774Z,13.70
2023-04-15T02:23:25.964Z,10.82
2023-04-15T02:25:54.285Z,11.30
2023-04-15T02:28:22.017Z,14.10
2023-04-15T02:30:53.575Z,10.60
2023-04-15T02:33:21.840Z,12.93
2023-04-15T02:35:48.700Z,11.13
2023-04-15T02:38:17.869Z,12.48
2023-04-15T02:40:44.708Z,13.90
2023-04-15T02:43:11.567Z,10.73
2023-04-15T02:45:38.419Z,13.50
2023-04-15T02:48:06.731Z,10.73
2023-04-15T02:50:33.718Z,12.80
2023-04-15T02:53:01.781Z,8.82
2023-04-15T02:55:29.306Z,10.52
2023-04-15T02:57:57.258Z,9.23
2023-04-15T03:00:25.504Z,10.20
2023-04-15T03:02:57.591Z,10.75
2023-04-15T03:05:27.643Z,12.45
2023-04-15T03:07:54.488Z,35.13
2023-04-15T03:10:22.189Z,14.77
2023-04-15T03:12:49.356Z,14.95
2023-04-15T03:15:16.781Z,16.48
2023-04-15T03:17:43.700Z,11.43
2023-04-15T03:20:11.234Z,14.90
2023-04-15T03:22:38.187Z,14.85
2023-04-15T03:25:05.490Z,15.23
2023-04-15T03:27:32.471Z,11.13
2023-04-15T03:29:59.270Z,12.60
2023-04-15T03:32:27.219Z,13.85
2023-04-15T03:34:54.111Z,10.20
2023-04-15T03:37:21.044Z,13.30
2023-04-15T03:39:47.948Z,11.48
2023-04-15T03:42:14.781Z,11.88
2023-04-15T03:44:41.538Z,12.57
2023-04-15T03:47:08.600Z,15.32
2023-04-15T03:49:37.009Z,12.25
2023-04-15T03:52:03.986Z,13.73
2023-04-15T03:54:30.974Z,12.35
2023-04-15T03:56:57.816Z,13.90
2023-04-15T03:59:24.702Z,18.08
2023-04-15T04:01:52.068Z,12.85
2023-04-15T04:04:19.005Z,15.75
2023-04-15T04:06:45.843Z,14.82
2023-04-15T04:09:12.646Z,14.02
2023-04-15T04:11:39.600Z,13.00
2023-04-15T04:14:06.551Z,20.77
2023-04-15T04:16:33.431Z,15.20
2023-04-15T04:19:00.760Z,14.75
2023-04-15T04:21:28.212Z,12.55
2023-04-15T04:23:56.703Z,16.63
2023-04-15T04:26:23.492Z,19.33
2023-04-15T04:28:50.756Z,13.57
2023-04-15T04:31:17.637Z,17.30
2023-04-15T04:33:44.542Z,14.00
2023-04-15T04:36:11.609Z,17.98
2023-04-15T04:38:38.389Z,16.80
2023-04-15T04:41:05.456Z,16.88
2023-04-15T04:43:32.230Z,20.27
2023-04-15T04:45:59.181Z,18.70
2023-04-15T04:48:26.335Z,17.95
2023-04-15T04:50:53.508Z,20.88
2023-04-15T04:53:20.504Z,17.48
2023-04-15T04:55:47.313Z,17.38
2023-04-15T04:58:14.173Z,20.27
2023-04-15T05:00:42.100Z,19.42
2023-04-15T05:03:09.699Z,17.95
2023-04-15T05:05:39.449Z,17.20
2023-04-15T05:08:06.517Z,19.42
2023-04-15T05:10:33.434Z,17.48
2023-04-15T05:13:00.383Z,19.88
2023-04-15T05:15:27.166Z,19.30
2023-04-15T05:17:53.966Z,17.80
2023-04-15T05:20:20.949Z,16.75
2023-04-15T05:22:47.796Z,18.20
2023-04-15T05:25:14.701Z,20.65
2023-04-15T05:27:42.138Z,19.58
2023-04-15T05:30:10.621Z,16.42
2023-04-15T05:32:38.410Z,18.85
2023-04-15T05:35:05.689Z,17.38
2023-04-15T05:37:32.663Z,21.33
2023-04-15T05:39:59.472Z,18.85
2023-04-15T05:42:26.322Z,23.98
2023-04-15T05:44:53.129Z,17.63
2023-04-15T05:47:19.971Z,20.55
2023-04-15T05:49:46.945Z,18.63
2023-04-15T05:52:13.743Z,18.83
2023-04-15T05:54:40.617Z,20.35
2023-04-15T05:57:07.882Z,19.50
2023-04-15T05:59:34.753Z,22.70
2023-04-15T06:02:01.967Z,21.70
2023-04-15T06:04:28.994Z,20.13
2023-04-15T06:06:56.214Z,20.33
2023-04-15T06:09:23.042Z,20.58
2023-04-15T06:11:49.977Z,21.35
2023-04-15T06:14:16.922Z,21.65
2023-04-15T06:16:44.086Z,22.17
2023-04-15T06:19:10.955Z,24.45
2023-04-15T06:21:38.248Z,21.35
2023-04-15T06:24:05.495Z,18.92
2023-04-15T06:26:32.335Z,20.10
2023-04-15T06:28:59.318Z,21.00
2023-04-15T06:31:26.845Z,19.65
2023-04-15T06:33:53.776Z,17.15
2023-04-15T06:36:21.132Z,21.75
2023-04-15T06:38:47.958Z,19.15
2023-04-15T06:41:14.820Z,16.83
2023-04-15T06:43:41.697Z,18.27
2023-04-15T06:46:08.634Z,19.73
2023-04-15T06:48:37.554Z,20.08
2023-04-15T06:51:04.630Z,17.38
2023-04-15T06:53:31.523Z,16.77
2023-04-15T06:55:58.411Z,18.95
2023-04-15T06:58:25.478Z,18.45
2023-04-15T07:00:53.134Z,18.55
2023-04-15T07:03:20.070Z,20.63
2023-04-15T07:05:47.111Z,18.75
2023-04-15T07:08:14.095Z,12.73
2023-04-15T07:10:41.486Z,15.48
2023-04-15T07:13:08.920Z,19.67
2023-04-15T07:15:35.994Z,12.80
2023-04-15T07:18:02.976Z,16.67
2023-04-15T07:20:30.007Z,17.38
2023-04-15T07:22:57.541Z,15.00
2023-04-15T07:25:24.504Z,12.45
2023-04-15T07:27:51.805Z,15.45
2023-04-15T07:30:18.711Z,13.57
2023-04-15T07:32:45.824Z,12.20
2023-04-15T07:35:13.542Z,11.40
2023-04-15T07:37:40.387Z,10.13
2023-04-15T07:40:08.976Z,11.73
2023-04-15T07:42:36.648Z,11.00
2023-04-15T07:45:03.727Z,9.35
2023-04-15T07:47:30.681Z,10.82
2023-04-15T07:49:57.762Z,16.00
2023-04-15T07:52:24.626Z,8.82
2023-04-15T07:54:51.634Z,9.18
2023-04-15T07:57:18.610Z,9.10
2023-04-15T07:59:45.569Z,11.15
2023-04-15T08:02:12.543Z,9.93
2023-04-15T08:04:39.609Z,7.95
2023-04-15T08:07:07.135Z,9.73
2023-04-15T08:09:34.040Z,8.32
2023-04-15T08:12:01.022Z,8.15
2023-04-15T08:14:27.885Z,7.88
2023-04-15T08:16:54.709Z,8.57
2023-04-15T08:19:21.595Z,11.23
2023-04-15T08:21:48.410Z,8.02
2023-04-15T08:24:15.728Z,10.23
2023-04-15T08:26:42.737Z,11.25
2023-04-15T08:29:09.542Z,9.05
2023-04-15T08:31:36.554Z,11.13
2023-04-15T08:34:03.788Z,8.27
2023-04-15T08:36:32.256Z,6.32
2023-04-15T08:39:01.459Z,8.10
2023-04-15T08:41:40.387Z,6.88
2023-04-15T08:44:07.580Z,5.35
2023-04-15T08:46:37.353Z,5.55
2023-04-15T08:49:05.408Z,5.47
2023-04-15T08:51:33.697Z,6.05
2023-04-15T08:54:01.550Z,5.88
2023-04-15T08:56:30.006Z,4.88
2023-04-15T08:58:57.830Z,5.70
2023-04-15T09:01:25.576Z,5.35
2023-04-15T09:03:56.414Z,7.28
2023-04-15T09:06:24.128Z,8.73
2023-04-15T09:08:51.962Z,6.18
2023-04-15T09:11:20.329Z,5.97
2023-04-15T09:13:47.324Z,6.40
2023-04-15T09:16:14.781Z,7.97
2023-04-15T09:18:41.996Z,5.85
2023-04-15T09:21:12.713Z,4.32
2023-04-15T09:23:41.216Z,5.03
2023-04-15T09:26:08.383Z,3.72
2023-04-15T09:28:42.600Z,7.28
2023-04-15T09:31:10.597Z,4.32
2023-04-15T09:33:56.527Z,5.95
2023-04-15T09:36:25.036Z,7.32
2023-04-15T09:38:59.697Z,5.90
2023-04-15T09:41:27.231Z,7.03
2023-04-15T09:43:54.125Z,5.40
2023-04-15T09:46:21.065Z,8.02
2023-04-15T09:49:07.006Z,5.65
2023-04-15T09:51:35.882Z,6.55
2023-04-15T09:54:03.676Z,7.95
2023-04-15T09:56:41.637Z,5.05
2023-04-15T09:59:09.469Z,6.32
2023-04-15T10:01:36.799Z,4.18
2023-04-15T10:04:05.072Z,4.38
2023-04-15T10:06:32.821Z,7.32
2023-04-15T10:09:00.732Z,3.80
2023-04-15T10:11:33.589Z,5.55
2023-04-15T10:14:01.162Z,4.97
2023-04-15T10:16:28.984Z,6.20
2023-04-15T10:18:57.146Z,5.75
2023-04-15T10:21:24.678Z,12.75
2023-04-15T10:23:52.189Z,63.35
2023-04-15T10:26:19.310Z,6.30
2023-04-15T10:28:50.124Z,8.00
2023-04-15T10:31:18.533Z,5.13
2023-04-15T10:33:47.777Z,7.20
2023-04-15T10:36:16.089Z,8.73
2023-04-15T10:38:46.840Z,7.82
2023-04-15T10:41:24.225Z,4.10
2023-04-15T10:43:55.319Z,3.85
2023-04-15T10:46:43.450Z,4.68
2023-04-15T10:49:24.279Z,4.82
2023-04-15T10:51:58.858Z,4.53
2023-04-15T10:54:25.808Z,5.45
2023-04-15T10:57:09.348Z,5.03
2023-04-15T10:59:37.922Z,8.15
2023-04-15T11:02:07.666Z,11.13
2023-04-15T11:04:54.040Z,7.97
2023-04-15T11:07:42.304Z,7.60
2023-04-15T11:10:17.826Z,5.95
2023-04-15T11:12:51.982Z,3.58
2023-04-15T11:15:35.190Z,6.53
2023-04-15T11:18:22.237Z,6.28
2023-04-15T11:20:50.816Z,6.65
2023-04-15T11:23:33.462Z,5.75
2023-04-15T11:26:02.616Z,3.58
2023-04-15T11:28:31.283Z,3.28
2023-04-15T11:30:58.877Z,5.00
2023-04-15T11:33:26.004Z,5.53
2023-04-15T11:35:56.988Z,7.05
2023-04-15T11:38:23.826Z,4.30
2023-04-15T11:40:52.428Z,6.93
2023-04-15T11:43:21.244Z,7.13
2023-04-15T11:46:00.943Z,4.95
2023-04-15T11:48:33.238Z,2.97
2023-04-15T11:51:01.247Z,3.83
2023-04-15T11:53:44.592Z,6.28
2023-04-15T11:56:19.378Z,8.65
2023-04-15T11:58:46.975Z,3.78
2023-04-15T12:01:14.170Z,3.90
2023-04-15T12:03:43.967Z,4.57
2023-04-15T12:06:24.772Z,6.72
2023-04-15T12:09:17.841Z,5.90
2023-04-15T12:11:47.572Z,6.18
2023-04-15T12:14:34.663Z,4.03
2023-04-15T12:17:06.568Z,4.32
2023-04-15T12:19:38.746Z,7.38
2023-04-15T12:22:08.650Z,5.25
2023-04-15T12:24:36.729Z,6.20
2023-04-15T12:27:06.148Z,6.72
2023-04-15T12:29:34.545Z,5.15
2023-04-15T12:32:08.280Z,8.88
2023-04-15T12:34:50.337Z,11.60
2023-04-15T12:37:17.729Z,4.07
2023-04-15T12:39:48.089Z,4.70
2023-04-15T12:42:16.458Z,3.63
2023-04-15T12:44:43.353Z,7.03
2023-04-15T12:47:11.676Z,9.95
2023-04-15T12:49:39.537Z,4.03
2023-04-15T12:52:07.129Z,4.15
2023-04-15T12:54:34.755Z,5.80
2023-04-15T12:57:05.939Z,5.80
2023-04-15T12:59:33.030Z,7.40
2023-04-15T13:02:01.231Z,9.27
2023-04-15T13:04:30.790Z,6.82
2023-04-15T13:06:58.096Z,7.93
2023-04-15T13:09:25.115Z,5.85
2023-04-15T13:11:52.771Z,7.63
2023-04-15T13:14:19.865Z,5.22
2023-04-15T13:16:47.227Z,5.13
2023-04-15T13:19:14.310Z,5.53
2023-04-15T13:21:41.430Z,7.07
2023-04-15T13:24:09.382Z,9.73
2023-04-15T13:26:36.467Z,6.32
2023-04-15T13:29:03.264Z,9.15
2023-04-15T13:31:30.082Z,6.30
2023-04-15T13:33:57.699Z,7.07
2023-04-15T13:36:24.620Z,8.75
2023-04-15T13:38:51.940Z,8.20
2023-04-15T13:41:20.011Z,5.50
2023-04-15T13:43:47.293Z,6.22
2023-04-15T13:46:14.726Z,5.28
2023-04-15T13:48:41.863Z,4.90
2023-04-15T13:51:08.803Z,8.25
2023-04-15T13:53:38.493Z,5.45
2023-04-15T13:56:10.617Z,5.43
2023-04-15T13:58:38.481Z,6.70
2023-04-15T14:01:07.060Z,10.95
2023-04-15T14:03:37.972Z,11.80
2023-04-15T14:06:06.219Z,8.32
2023-04-15T14:08:33.467Z,10.15
2023-04-15T14:11:00.601Z,8.73
2023-04-15T14:13:27.487Z,7.03
2023-04-15T14:15:54.418Z,8.30
2023-04-15T14:18:21.261Z,9.98
2023-04-15T14:20:48.226Z,6.82
2023-04-15T14:23:15.067Z,11.40
2023-04-15T14:25:42.295Z,13.38
2023-04-15T14:28:09.160Z,8.65
2023-04-15T14:30:36.238Z,13.00
2023-04-15T14:33:03.859Z,8.80
2023-04-15T14:35:31.172Z,10.98
2023-04-15T14:37:58.044Z,5.72
2023-04-15T14:40:25.061Z,6.70
2023-04-15T14:42:52.058Z,9.73
2023-04-15T14:45:19.348Z,13.15
2023-04-15T14:47:46.954Z,11.70
2023-04-15T14:50:13.804Z,9.32
2023-04-15T14:52:40.811Z,11.57
2023-04-15T14:55:10.355Z,12.95
2023-04-15T14:57:41.540Z,13.70
2023-04-15T15:00:10.532Z,11.13
2023-04-15T15:02:40.534Z,11.52
2023-04-15T15:05:08.629Z,16.27
2023-04-15T15:07:39.387Z,9.52
2023-04-15T15:10:07.163Z,10.95
2023-04-15T15:12:34.368Z,12.35
2023-04-15T15:15:04.981Z,16.02
2023-04-15T15:17:36.805Z,11.48
2023-04-15T15:20:04.152Z,13.02
2023-04-15T15:22:31.226Z,14.10
2023-04-15T15:24:59.200Z,16.45
2023-04-15T15:27:26.329Z,16.20
2023-04-15T15:29:53.152Z,13.90
2023-04-15T15:32:20.123Z,16.77
2023-04-15T15:34:46.971Z,11.05
2023-04-15T15:37:13.822Z,15.93
2023-04-15T15:39:41.097Z,17.25
2023-04-15T15:42:08.031Z,14.10
2023-04-15T15:44:36.321Z,13.38
2023-04-15T15:47:03.419Z,18.65
2023-04-15T15:49:30.744Z,15.18
2023-04-15T15:51:57.632Z,23.20
2023-04-15T15:54:25.281Z,17.95
2023-04-15T15:56:52.207Z,15.43
2023-04-15T15:59:19.021Z,11.27
2023-04-15T16:01:46.253Z,17.08
2023-04-15T16:04:13.509Z,17.42
2023-04-15T16:06:40.743Z,16.60
2023-04-15T16:09:07.571Z,19.50
2023-04-15T16:11:34.415Z,14.85
2023-04-15T16:14:01.598Z,16.65
2023-04-15T16:16:29.985Z,17.58
2023-04-15T16:18:59.875Z,19.23
2023-04-15T16:21:27.364Z,26.20
2023-04-15T16:23:54.376Z,17.80
2023-04-15T16:26:21.798Z,19.25
2023-04-15T16:28:48.616Z,19.80
2023-04-15T16:31:15.805Z,21.90
2023-04-15T16:33:42.614Z,24.95
2023-04-15T16:36:09.442Z,26.15
2023-04-15T16:38:36.478Z,21.67
2023-04-15T16:41:03.429Z,25.45
2023-04-15T16:43:30.344Z,22.30
2023-04-15T16:45:57.563Z,26.58
2023-04-15T16:48:24.577Z,27.25
2023-04-15T16:50:51.457Z,28.05
2023-04-15T16:53:18.386Z,27.98
2023-04-15T16:55:45.218Z,29.23
2023-04-15T16:58:12.031Z,21.88
2023-04-15T17:00:38.920Z,22.20
2023-04-15T17:03:06.253Z,25.92
2023-04-15T17:05:33.905Z,18.48
2023-04-15T17:08:01.088Z,21.65
2023-04-15T17:10:28.432Z,25.83
2023-04-15T17:12:59.249Z,27.10
2023-04-15T17:15:27.197Z,25.65
2023-04-15T17:17:54.375Z,23.85
2023-04-15T17:20:21.690Z,30.05
2023-04-15T17:22:49.277Z,30.77
2023-04-15T17:25:16.249Z,21.38
2023-04-15T17:27:43.145Z,23.15
2023-04-15T17:30:10.748Z,30.63
2023-04-15T17:32:39.456Z,32.45
2023-04-15T17:35:06.947Z,24.05
2023-04-15T17:37:34.312Z,34.03
2023-04-15T17:40:01.384Z,31.08
2023-04-15T17:42:28.186Z,30.65
2023-04-15T17:44:55.030Z,29.42
2023-04-15T17:47:21.969Z,32.25
2023-04-15T17:49:48.848Z,33.53
2023-04-15T17:52:15.680Z,37.10
2023-04-15T17:54:42.595Z,31.00
2023-04-15T17:57:09.877Z,38.45
2023-04-15T17:59:37.087Z,35.53
2023-04-15T18:02:04.024Z,41.17
2023-04-15T18:04:31.115Z,34.45
2023-04-15T18:06:58.102Z,30.88
2023-04-15T18:09:25.007Z,34.03
2023-04-15T18:11:51.846Z,30.40
2023-04-15T18:14:31.108Z,31.30
2023-04-15T18:17:01.365Z,35.83
2023-04-15T18:19:28.734Z,43.33
2023-04-15T18:21:55.566Z,40.17
2023-04-15T18:24:22.755Z,37.17
2023-04-15T18:26:49.606Z,40.05
2023-04-15T18:29:16.642Z,28.92
2023-04-15T18:31:43.940Z,38.53
2023-04-15T18:34:10.950Z,46.70
2023-04-15T18:36:37.931Z,40.70
2023-04-15T18:39:05.169Z,43.17
2023-04-15T18:41:32.262Z,44.38
2023-04-15T18:43:59.312Z,37.20
2023-04-15T18:46:26.315Z,40.78
2023-04-15T18:48:53.188Z,44.53
2023-04-15T18:51:20.451Z,52.17
2023-04-15T18:53:47.621Z,32.67
2023-04-15T18:56:14.506Z,39.00
2023-04-15T18:59:18.922Z,42.05
2023-04-15T19:01:29.839Z,42.05
2023-04-15T19:03:56.721Z,40.25
2023-04-15T19:06:23.682Z,45.72
2023-04-15T19:08:51.772Z,38.03
2023-04-15T19:11:18.602Z,45.10
2023-04-15T19:13:45.657Z,40.38
2023-04-15T19:16:13.002Z,39.13
2023-04-15T19:18:39.901Z,51.83
2023-04-15T19:21:06.725Z,41.25
2023-04-15T19:23:33.618Z,53.53
2023-04-15T19:26:00.574Z,43.30
2023-04-15T19:28:28.354Z,44.88
2023-04-15T19:30:55.608Z,48.58
2023-04-15T19:33:22.788Z,40.28
2023-04-15T19:35:52.273Z,46.67
2023-04-15T19:38:19.129Z,51.05
2023-04-15T19:40:45.977Z,54.63
2023-04-15T19:43:13.210Z,53.13
2023-04-15T19:45:40.050Z,50.63
2023-04-15T19:48:07.409Z,55.28
2023-04-15T19:50:34.435Z,43.83
2023-04-15T19:53:01.345Z,46.58
2023-04-15T19:55:28.182Z,53.33
2023-04-15T19:57:55.051Z,50.95
2023-04-15T20:00:22.056Z,48.65
2023-04-15T20:02:48.982Z,53.17
2023-04-15T20:05:16.110Z,64.78
2023-04-15T20:07:45.298Z,51.67
2023-04-15T20:10:13.253Z,53.38
2023-04-15T20:12:49.894Z,49.83
2023-04-15T20:15:19.689Z,53.80
2023-04-15T20:17:46.637Z,43.25
2023-04-15T20:20:13.583Z,59.92
2023-04-15T20:22:41.116Z,62.10
2023-04-15T20:25:08.993Z,48.33
2023-04-15T20:27:35.954Z,58.38
2023-04-15T20:30:04.980Z,62.33
2023-04-15T20:32:36.229Z,65.78
2023-04-15T20:35:04.863Z,65.63
2023-04-15T20:37:33.540Z,67.57
2023-04-15T20:40:01.651Z,60.78
2023-04-15T20:42:33.606Z,55.67
2023-04-15T20:45:01.203Z,57.10
2023-04-15T20:47:28.252Z,76.88
2023-04-15T20:49:55.409Z,67.65
2023-04-15T20:52:22.299Z,56.15
2023-04-15T20:54:50.328Z,66.82
2023-04-15T20:57:17.381Z,68.63
2023-04-15T20:59:44.276Z,73.28
2023-04-15T21:02:12.109Z,71.75
2023-04-15T21:04:39.133Z,69.35
2023-04-15T21:07:06.082Z,63.25
2023-04-15T21:09:32.981Z,71.75
2023-04-15T21:12:01.964Z,69.72
2023-04-15T21:14:29.558Z,72.82
2023-04-15T21:16:59.705Z,84.95
2023-04-15T21:19:26.624Z,68.97
2023-04-15T21:21:53.421Z,73.53
2023-04-15T21:24:20.274Z,67.25
2023-04-15T21:26:47.422Z,71.00
2023-04-15T21:29:14.802Z,96.55
2023-04-15T21:31:42.108Z,72.75
2023-04-15T21:34:09.928Z,75.20
2023-04-15T21:36:38.079Z,83.20
2023-04-15T21:39:05.805Z,76.97
2023-04-15T21:41:32.940Z,95.93
2023-04-15T21:43:59.855Z,90.78
2023-04-15T21:46:32.667Z,78.65
2023-04-15T21:51:27.677Z,86.32
2023-04-15T21:53:54.669Z,79.32
2023-04-15T21:56:23.255Z,72.15
2023-04-15T21:58:50.306Z,84.18
2023-04-15T22:01:17.748Z,86.88
2023-04-15T22:03:44.912Z,88.80
2023-04-15T22:58:54.806Z,84.95
2023-04-15T23:01:21.852Z,91.05
2023-04-15T23:03:57.530Z,95.70
2023-04-15T23:06:36.703Z,87.82
2023-04-15T23:09:03.910Z,99.32
2023-04-15T23:11:30.861Z,84.32
2023-04-15T23:13:57.705Z,83.30
2023-04-15T23:16:24.557Z,91.80
2023-04-15T23:18:51.420Z,84.70
2023-04-15T23:21:18.260Z,83.38
2023-04-15T23:23:45.117Z,94.00
2023-04-15T23:26:11.965Z,92.53
2023-04-15T23:28:38.782Z,86.93
2023-04-15T23:31:06.796Z,82.80
2023-04-15T23:33:33.610Z,84.60
2023-04-15T23:36:00.491Z,90.45
2023-04-15T23:38:27.287Z,96.55
2023-04-15T23:40:54.100Z,86.13
2023-04-15T23:43:20.953Z,108.00
2023-04-15T23:45:47.921Z,83.93
2023-04-15T23:48:14.958Z,89.85
2023-04-15T23:50:41.813Z,84.28
2023-04-15T23:53:08.601Z,88.82
2023-04-15T23:55:35.432Z,94.43
2023-04-15T23:58:02.362Z,90.85
